Richmond, Mississippi
Current Conditions -  °F | °C
As of 12:53 PM on Sunday 21 Dec 2014 (Local Time) from KTUP Reporting Station
Clear Clear  
Wind Chill: 54°   Ceiling: Unl
Heat Index: 54°   Visibility: 10mi
Dew Point: 36°   Wind: 5mph
Humidity: 51%   Direction: NA
Pressure: 30.09"   Gusts: NA
Location:  34.1973°N, 88.6082°W
Report Text: KTUP 211853Z VRB04KT 10SM CLR 12/02 A3009 RMK AO2 SLP190 T01220022
Loading
Personal Weather Stations






























Interactive Weather Map New forecast layout! Learn more

10-Day Weather Forecast

Advertisements
Track Severe Weather on mobile